Time;durP1;ratioP1;P1;durP2;ratioP2;P2;SDS_P1;SDS_P2;PMS_P1;PMS_P2;Temp;Humidity;BMP_temperature;BMP_pressure;BME280_temperature;BME280_humidity;BME280_pressure;Samples;Min_cycle;Max_cycle;Signal;HPM_P1;HPM_P2
2021/01/17 00:02:10;;;;;;;23.55;12.70;;;-10.40;54.10;;;;;;5065416;28;20032;-59
2021/01/17 00:04:36;;;;;;;22.35;12.23;;;-10.40;54.10;;;;;;5074923;28;20024;-59
2021/01/17 00:07:01;;;;;;;22.70;13.02;;;-10.40;54.20;;;;;;5075190;28;20032;-55
2021/01/17 00:09:27;;;;;;;19.80;12.20;;;-10.40;54.20;;;;;;5061923;28;20029;-60
2021/01/17 00:11:53;;;;;;;24.35;12.88;;;-10.30;54.30;;;;;;5074677;28;20052;-55
2021/01/17 00:14:19;;;;;;;21.50;12.75;;;-10.40;54.20;;;;;;5074445;28;20035;-57
2021/01/17 00:16:45;;;;;;;20.67;12.27;;;-10.30;54.10;;;;;;5074709;28;20103;-58
2021/01/17 00:19:10;;;;;;;17.70;11.05;;;-10.30;54.30;;;;;;5074825;28;20063;-60
2021/01/17 00:21:44;;;;;;;21.30;13.63;;;-10.30;54.40;;;;;;5074550;28;20020;-59
2021/01/17 00:24:10;;;;;;;26.33;14.63;;;-10.30;54.30;;;;;;5071894;28;20457;-56
2021/01/17 00:26:36;;;;;;;20.50;12.55;;;-10.30;54.30;;;;;;5073652;28;20100;-58
2021/01/17 00:29:02;;;;;;;25.43;14.20;;;-10.30;54.00;;;;;;5074146;28;20548;-57
2021/01/17 00:31:27;;;;;;;21.08;12.98;;;-10.30;53.80;;;;;;5074615;28;20024;-58
2021/01/17 00:33:53;;;;;;;30.30;16.10;;;-10.40;53.80;;;;;;5074484;28;20100;-58
2021/01/17 00:36:19;;;;;;;21.08;12.80;;;-10.40;53.90;;;;;;5073721;28;20373;-56
2021/01/17 00:38:45;;;;;;;30.50;14.50;;;-10.50;53.90;;;;;;5074404;28;20027;-58
2021/01/17 00:41:10;;;;;;;24.47;14.50;;;-10.50;54.10;;;;;;5074420;28;20369;-58
2021/01/17 00:43:36;;;;;;;26.25;14.63;;;-10.50;54.10;;;;;;5074290;28;20064;-56
2021/01/17 00:46:04;;;;;;;27.35;13.85;;;-10.50;54.20;;;;;;5074356;28;20020;-55
2021/01/17 00:48:29;;;;;;;23.90;14.40;;;-10.50;54.20;;;;;;5074548;28;20024;-58
2021/01/17 00:50:55;;;;;;;27.00;15.00;;;-10.50;54.30;;;;;;5074176;28;20017;-58
2021/01/17 00:53:21;;;;;;;31.13;16.52;;;-10.50;54.10;;;;;;5074127;28;20396;-58
2021/01/17 00:55:46;;;;;;;28.48;15.32;;;-10.50;54.10;;;;;;5067912;28;20129;-56
2021/01/17 00:58:12;;;;;;;31.90;14.93;;;-10.60;54.20;;;;;;5065941;28;20025;-57
2021/01/17 01:00:38;;;;;;;22.65;12.75;;;-10.50;54.40;;;;;;5073919;28;20049;-57
2021/01/17 01:03:03;;;;;;;25.02;13.30;;;-10.50;54.20;;;;;;5073703;28;20040;-60
2021/01/17 01:05:29;;;;;;;24.98;13.68;;;-10.60;54.20;;;;;;5064055;28;20380;-58
2021/01/17 01:07:56;;;;;;;27.37;14.23;;;-10.60;54.20;;;;;;5068462;28;20422;-59
2021/01/17 01:10:25;;;;;;;29.75;15.32;;;-10.60;54.20;;;;;;5073778;28;20013;-58
2021/01/17 01:12:54;;;;;;;24.60;12.73;;;-10.60;54.20;;;;;;5073834;28;20017;-57
2021/01/17 01:15:21;;;;;;;21.17;12.18;;;-10.60;54.30;;;;;;5058461;28;20033;-57
2021/01/17 01:17:47;;;;;;;24.48;13.27;;;-10.60;54.40;;;;;;5061216;28;20514;-58
2021/01/17 01:20:13;;;;;;;20.40;12.10;;;-10.60;54.40;;;;;;5059711;28;20016;-59
2021/01/17 01:22:43;;;;;;;25.27;13.60;;;-10.70;54.40;;;;;;5063528;28;20427;-58
2021/01/17 01:25:10;;;;;;;24.07;13.33;;;-10.70;54.40;;;;;;5070880;28;20111;-58
2021/01/17 01:27:36;;;;;;;29.60;14.00;;;-10.70;54.30;;;;;;5068281;28;20016;-56
2021/01/17 01:30:02;;;;;;;27.17;15.13;;;-10.70;54.40;;;;;;5070752;28;20100;-58
2021/01/17 01:32:28;;;;;;;27.67;14.77;;;-10.70;54.40;;;;;;5059611;28;20060;-59
2021/01/17 01:34:53;;;;;;;30.58;14.35;;;-10.70;54.30;;;;;;5073131;28;20044;-59
2021/01/17 01:37:19;;;;;;;37.55;15.30;;;-10.70;54.40;;;;;;5073362;28;20033;-57
2021/01/17 01:39:45;;;;;;;25.90;14.77;;;-10.80;54.40;;;;;;5073432;28;20099;-59
2021/01/17 01:42:10;;;;;;;31.60;15.17;;;-10.80;54.50;;;;;;5073466;28;20024;-59
2021/01/17 01:44:36;;;;;;;21.63;11.90;;;-10.80;54.50;;;;;;5072975;28;20029;-58
2021/01/17 01:47:08;;;;;;;27.70;14.00;;;-10.80;54.60;;;;;;5073194;28;20542;-59
2021/01/17 01:49:33;;;;;;;24.15;12.93;;;-10.80;54.60;;;;;;5059474;28;20025;-58
2021/01/17 01:52:01;;;;;;;28.42;15.52;;;-10.80;54.50;;;;;;5073014;28;20043;-57
2021/01/17 01:54:26;;;;;;;27.70;13.88;;;-10.80;54.50;;;;;;5060899;28;20389;-59
2021/01/17 01:56:53;;;;;;;26.87;14.30;;;-10.80;54.50;;;;;;5060206;28;20023;-56
2021/01/17 01:59:20;;;;;;;23.00;13.88;;;-10.80;54.60;;;;;;5073009;28;20101;-58
2021/01/17 02:01:48;;;;;;;27.02;12.68;;;-10.90;54.60;;;;;;5072841;28;20108;-59
2021/01/17 02:04:14;;;;;;;23.95;12.50;;;-10.90;54.70;;;;;;5072808;28;20125;-56
2021/01/17 02:07:05;;;;;;;23.33;12.90;;;-10.90;54.70;;;;;;5072696;28;20484;-58
2021/01/17 02:09:31;;;;;;;21.83;12.48;;;-10.90;54.70;;;;;;5072886;28;20158;-58
2021/01/17 02:12:15;;;;;;;23.87;10.97;;;-10.90;54.90;;;;;;5072779;28;20111;-56
2021/01/17 02:14:57;;;;;;;20.02;11.07;;;-10.90;54.80;;;;;;5068729;28;20059;-55
2021/01/17 02:17:27;;;;;;;20.08;12.07;;;-10.90;55.10;;;;;;5072653;28;20025;-55
2021/01/17 02:20:36;;;;;;;18.10;12.10;;;-10.90;55.10;;;;;;5064328;28;20086;-56
2021/01/17 02:23:02;;;;;;;19.50;12.53;;;-10.90;55.10;;;;;;5045030;28;20457;-59
2021/01/17 02:25:30;;;;;;;20.80;13.43;;;-10.90;55.00;;;;;;5040805;28;20041;-59
2021/01/17 02:27:58;;;;;;;17.67;11.17;;;-10.90;54.70;;;;;;5051982;28;20435;-57
2021/01/17 02:30:26;;;;;;;21.25;12.02;;;-11.00;54.70;;;;;;5072598;28;20082;-57
2021/01/17 02:33:08;;;;;;;28.43;11.70;;;-11.00;54.80;;;;;;5072079;28;20062;-60
2021/01/17 02:35:35;;;;;;;19.73;10.83;;;-11.00;54.90;;;;;;5072348;28;20094;-57
2021/01/17 02:38:13;;;;;;;20.63;13.07;;;-11.00;54.90;;;;;;5074366;28;20044;-58
2021/01/17 02:41:15;;;;;;;18.73;11.23;;;-10.90;55.10;;;;;;5076683;28;20060;-58
2021/01/17 02:43:42;;;;;;;22.42;13.07;;;-10.90;55.10;;;;;;5069729;28;20444;-58
2021/01/17 02:46:10;;;;;;;25.27;12.70;;;-10.90;55.70;;;;;;5075866;28;20028;-57
2021/01/17 02:48:35;;;;;;;23.27;12.60;;;-10.80;55.00;;;;;;5076501;28;20035;-57
2021/01/17 02:51:01;;;;;;;23.07;12.20;;;-10.80;55.00;;;;;;5076220;28;20029;-58
2021/01/17 02:53:45;;;;;;;21.03;12.07;;;-10.80;55.00;;;;;;5071865;28;20070;-59
2021/01/17 02:56:20;;;;;;;20.50;11.53;;;-10.80;55.00;;;;;;5076025;28;20098;-57
2021/01/17 02:58:49;;;;;;;17.73;10.75;;;-10.80;55.10;;;;;;5076471;28;20023;-57
2021/01/17 03:01:19;;;;;;;18.73;12.37;;;-10.70;55.00;;;;;;5071378;28;20027;-57
2021/01/17 03:03:47;;;;;;;17.83;10.60;;;-10.70;55.00;;;;;;5068713;28;20083;-57
2021/01/17 03:06:14;;;;;;;22.83;12.63;;;-10.70;55.00;;;;;;5075803;28;20123;-59
2021/01/17 03:08:40;;;;;;;23.47;11.70;;;-10.70;55.00;;;;;;5076267;28;20021;-57
2021/01/17 03:11:06;;;;;;;21.90;12.43;;;-10.80;55.10;;;;;;5076072;28;20020;-58
2021/01/17 03:13:36;;;;;;;18.13;12.20;;;-10.80;55.10;;;;;;5074433;28;20021;-59
2021/01/17 03:16:06;;;;;;;21.47;12.60;;;-10.80;55.40;;;;;;5076115;28;20450;-57
2021/01/17 03:18:33;;;;;;;19.67;14.03;;;-10.80;55.30;;;;;;5075848;28;20115;-58
2021/01/17 03:20:59;;;;;;;23.33;12.27;;;-10.80;55.30;;;;;;5075960;28;20025;-58
2021/01/17 03:23:25;;;;;;;24.25;13.68;;;-10.80;55.50;;;;;;5064227;28;20534;-59
2021/01/17 03:25:50;;;;;;;38.13;17.43;;;-10.70;55.70;;;;;;5062594;28;20020;-57
2021/01/17 03:28:16;;;;;;;34.03;18.50;;;-10.70;55.50;;;;;;5075492;28;20360;-57
2021/01/17 03:30:42;;;;;;;28.67;15.97;;;-10.70;55.50;;;;;;5075667;28;20027;-58
2021/01/17 03:33:07;;;;;;;28.10;15.17;;;-10.70;55.60;;;;;;5075732;28;20021;-58
2021/01/17 03:35:33;;;;;;;32.50;18.40;;;-10.70;55.70;;;;;;5075377;28;20055;-56
2021/01/17 03:37:59;;;;;;;29.37;17.73;;;-10.70;55.70;;;;;;5075515;28;20376;-58
2021/01/17 03:40:26;;;;;;;25.88;15.40;;;-10.60;55.50;;;;;;5075463;28;20021;-56
2021/01/17 03:42:51;;;;;;;28.92;16.70;;;-10.60;55.60;;;;;;5067148;28;20095;-59
2021/01/17 03:45:17;;;;;;;34.00;17.77;;;-10.70;55.50;;;;;;5075359;28;20522;-55
2021/01/17 03:47:43;;;;;;;30.97;15.70;;;-10.60;55.50;;;;;;5075463;28;20032;-56
2021/01/17 03:50:10;;;;;;;26.43;13.80;;;-10.70;55.60;;;;;;5074521;28;20487;-58
2021/01/17 03:52:36;;;;;;;28.63;14.98;;;-10.70;55.50;;;;;;5075269;28;20055;-57
2021/01/17 03:55:02;;;;;;;25.33;14.23;;;-10.70;55.70;;;;;;5073265;28;20055;-57
2021/01/17 03:57:28;;;;;;;26.40;14.47;;;-10.60;55.70;;;;;;5067910;28;20032;-55
2021/01/17 03:59:53;;;;;;;24.63;14.23;;;-10.70;55.70;;;;;;5075230;28;20483;-57
2021/01/17 04:02:19;;;;;;;22.30;13.43;;;-10.70;55.80;;;;;;5075062;28;20388;-58
2021/01/17 04:04:44;;;;;;;25.98;14.43;;;-10.70;55.60;;;;;;5074963;28;20040;-57
2021/01/17 04:07:10;;;;;;;20.97;13.60;;;-10.70;55.90;;;;;;5075143;28;20024;-55
2021/01/17 04:09:36;;;;;;;25.80;13.40;;;-10.60;55.90;;;;;;5075118;28;20021;-59
2021/01/17 04:12:02;;;;;;;26.00;14.03;;;-10.60;55.90;;;;;;5074789;28;20024;-58
2021/01/17 04:14:27;;;;;;;26.50;14.93;;;-10.60;56.00;;;;;;5071191;28;20021;-59
2021/01/17 04:16:53;;;;;;;24.13;13.00;;;-10.60;55.90;;;;;;5074880;28;20021;-58
2021/01/17 04:19:19;;;;;;;21.10;12.33;;;-10.60;56.00;;;;;;5074803;28;20032;-58
2021/01/17 04:21:46;;;;;;;24.67;13.30;;;-10.60;56.10;;;;;;5074988;28;20024;-55
2021/01/17 04:24:12;;;;;;;23.90;13.13;;;-10.50;56.00;;;;;;5058058;28;20025;-58
2021/01/17 04:26:38;;;;;;;23.15;13.75;;;-10.60;55.50;;;;;;5065587;28;20027;-59
2021/01/17 04:29:04;;;;;;;23.03;13.63;;;-10.60;55.30;;;;;;5064995;28;20017;-59
2021/01/17 04:31:48;;;;;;;23.03;13.53;;;-10.60;55.40;;;;;;5074765;28;20017;-58
2021/01/17 04:34:13;;;;;;;24.33;12.60;;;-10.70;55.30;;;;;;5062659;28;20013;-57
2021/01/17 04:36:44;;;;;;;21.38;13.48;;;-10.70;55.40;;;;;;5074437;28;20082;-56
2021/01/17 04:39:10;;;;;;;24.33;14.23;;;-10.80;55.50;;;;;;5073751;28;20020;-57
2021/01/17 04:41:38;;;;;;;26.97;14.33;;;-10.70;55.80;;;;;;5074496;28;20017;-57
2021/01/17 04:44:08;;;;;;;24.77;12.50;;;-10.70;55.80;;;;;;5064271;28;20026;-59
2021/01/17 04:46:33;;;;;;;25.40;14.15;;;-10.70;56.00;;;;;;5074451;28;20082;-59
2021/01/17 04:49:02;;;;;;;32.58;17.15;;;-10.70;55.70;;;;;;5074293;28;20021;-56
2021/01/17 04:51:29;;;;;;;29.40;16.07;;;-10.60;55.60;;;;;;5074186;28;20024;-59
2021/01/17 04:54:00;;;;;;;30.73;16.35;;;-10.70;55.50;;;;;;5073228;28;20489;-57
2021/01/17 04:56:28;;;;;;;28.57;15.70;;;-10.70;55.40;;;;;;5071749;28;20032;-56
2021/01/17 04:59:12;;;;;;;26.88;16.30;;;-10.70;55.60;;;;;;5059267;28;20503;-59
2021/01/17 05:01:47;;;;;;;28.00;14.87;;;-10.80;55.30;;;;;;5074266;28;20020;-54
2021/01/17 05:04:36;;;;;;;29.08;15.27;;;-10.80;55.30;;;;;;5073076;28;20024;-58
2021/01/17 05:07:14;;;;;;;26.93;13.23;;;-10.90;55.40;;;;;;5067029;28;20127;-57
2021/01/17 05:09:45;;;;;;;30.97;15.07;;;-11.00;55.30;;;;;;5072671;28;20016;-57
2021/01/17 05:12:15;;;;;;;26.90;15.38;;;-11.00;55.30;;;;;;5073585;28;20028;-58
2021/01/17 05:14:42;;;;;;;33.67;17.53;;;-11.10;55.20;;;;;;5072531;28;20564;-57
2021/01/17 05:17:09;;;;;;;30.00;16.05;;;-11.10;55.30;;;;;;5070113;28;20490;-57
2021/01/17 05:19:37;;;;;;;40.97;16.47;;;-11.20;55.40;;;;;;5073686;28;20070;-58
2021/01/17 05:22:05;;;;;;;25.83;16.23;;;-11.30;55.40;;;;;;5073152;28;20074;-57
2021/01/17 05:24:31;;;;;;;30.50;14.83;;;-11.30;55.60;;;;;;5055082;28;20064;-57
2021/01/17 05:27:01;;;;;;;26.13;14.47;;;-11.40;55.60;;;;;;5066540;28;20024;-58
2021/01/17 05:29:30;;;;;;;28.43;14.77;;;-11.40;55.70;;;;;;5073084;28;20371;-59
2021/01/17 05:31:57;;;;;;;28.30;14.87;;;-11.50;55.80;;;;;;5073577;28;20028;-58
2021/01/17 05:34:24;;;;;;;26.67;17.10;;;-11.50;55.70;;;;;;5061402;28;20468;-57
2021/01/17 05:37:11;;;;;;;29.20;15.10;;;-11.50;55.70;;;;;;5073472;28;20483;-58
2021/01/17 05:39:52;;;;;;;27.53;14.70;;;-11.50;55.70;;;;;;5072544;28;20021;-56
2021/01/17 05:42:27;;;;;;;30.35;16.33;;;-11.60;55.70;;;;;;5073264;28;20418;-58
2021/01/17 05:45:08;;;;;;;33.57;16.87;;;-11.60;55.80;;;;;;5073413;28;20077;-57
2021/01/17 05:47:34;;;;;;;30.67;14.90;;;-11.60;55.80;;;;;;5073139;28;20508;-57
2021/01/17 05:50:09;;;;;;;28.40;14.67;;;-11.60;56.00;;;;;;5073119;28;20100;-59
2021/01/17 05:52:35;;;;;;;23.93;13.97;;;-11.60;56.10;;;;;;5073122;28;20021;-55
2021/01/17 05:55:02;;;;;;;26.00;14.80;;;-11.60;56.20;;;;;;5072666;28;20032;-58
2021/01/17 05:57:30;;;;;;;23.60;14.23;;;-11.50;56.30;;;;;;5073011;28;20090;-58
2021/01/17 05:59:56;;;;;;;24.43;14.27;;;-11.50;56.30;;;;;;5072987;28;20024;-58
2021/01/17 06:02:23;;;;;;;21.90;13.83;;;-11.40;56.30;;;;;;5072175;28;20537;-56
2021/01/17 06:04:56;;;;;;;23.43;12.90;;;-11.40;56.60;;;;;;5062429;28;20104;-56
2021/01/17 06:07:24;;;;;;;25.33;13.67;;;-11.30;56.60;;;;;;5072880;28;20028;-55
2021/01/17 06:10:01;;;;;;;23.07;14.30;;;-11.20;56.50;;;;;;5071618;28;20024;-58
2021/01/17 06:12:33;;;;;;;26.47;14.80;;;-11.20;56.20;;;;;;5072701;28;20067;-56
2021/01/17 06:15:10;;;;;;;26.13;13.47;;;-11.20;56.10;;;;;;5068749;28;20059;-55
2021/01/17 06:17:39;;;;;;;24.23;14.77;;;-11.10;56.00;;;;;;5062588;28;20103;-55
2021/01/17 06:20:09;;;;;;;27.77;16.08;;;-11.10;55.90;;;;;;5072642;28;20024;-58
2021/01/17 06:22:36;;;;;;;32.87;16.87;;;-11.10;56.00;;;;;;5058668;28;20021;-56
2021/01/17 06:25:05;;;;;;;32.53;17.10;;;-11.10;56.00;;;;;;5072655;28;20025;-58
2021/01/17 06:27:31;;;;;;;32.90;16.77;;;-11.10;56.10;;;;;;5069143;28;20013;-55
2021/01/17 06:29:57;;;;;;;31.38;17.77;;;-11.10;56.10;;;;;;5067667;28;20032;-57
2021/01/17 06:32:31;;;;;;;34.73;18.00;;;-11.10;56.10;;;;;;5071242;28;20369;-58
2021/01/17 06:34:58;;;;;;;36.67;16.83;;;-11.10;56.20;;;;;;5070912;28;20511;-56
2021/01/17 06:37:25;;;;;;;36.33;19.60;;;-11.10;56.10;;;;;;5072506;28;20017;-58
2021/01/17 06:39:56;;;;;;;33.55;18.20;;;-11.00;56.30;;;;;;5071895;28;20059;-55
2021/01/17 06:42:23;;;;;;;29.58;17.05;;;-11.00;56.30;;;;;;5067643;28;20032;-59
2021/01/17 06:44:50;;;;;;;31.70;18.57;;;-11.00;57.00;;;;;;5072129;28;20476;-58
2021/01/17 06:47:24;;;;;;;42.30;20.00;;;-11.00;56.30;;;;;;5072754;28;20020;-55
2021/01/17 06:49:55;;;;;;;39.70;20.57;;;-11.00;56.30;;;;;;5068637;28;20381;-57
2021/01/17 06:52:21;;;;;;;45.10;21.97;;;-11.00;56.30;;;;;;5070719;28;20105;-54
2021/01/17 06:54:49;;;;;;;48.90;26.30;;;-11.00;56.30;;;;;;5071908;28;20500;-60
2021/01/17 06:57:16;;;;;;;45.93;22.83;;;-10.90;56.50;;;;;;5072479;28;20078;-58
2021/01/17 06:59:48;;;;;;;55.67;25.50;;;-10.90;56.60;;;;;;5072186;28;20021;-58
2021/01/17 07:02:17;;;;;;;48.97;23.77;;;-10.80;56.70;;;;;;5071143;28;20064;-58
2021/01/17 07:05:20;;;;;;;56.63;26.03;;;-10.80;56.40;;;;;;5072228;28;20036;-57
2021/01/17 07:07:48;;;;;;;48.92;23.25;;;-10.70;56.50;;;;;;5072474;28;20483;-56
2021/01/17 07:10:22;;;;;;;49.50;21.00;;;-10.60;56.30;;;;;;5071625;28;20048;-56
2021/01/17 07:13:04;;;;;;;41.58;19.30;;;-10.60;56.20;;;;;;5072394;28;20353;-57
2021/01/17 07:15:41;;;;;;;31.70;17.17;;;-10.50;56.10;;;;;;5061058;28;20039;-59
2021/01/17 07:18:17;;;;;;;35.00;16.83;;;-10.50;56.10;;;;;;5072063;28;20031;-57
2021/01/17 07:20:45;;;;;;;29.08;15.13;;;-10.50;56.10;;;;;;5063671;28;20108;-57
2021/01/17 07:23:13;;;;;;;27.00;15.52;;;-10.50;56.10;;;;;;5062526;28;20028;-58
2021/01/17 07:25:42;;;;;;;24.02;14.23;;;-10.50;56.10;;;;;;5074315;28;20071;-58
2021/01/17 07:28:09;;;;;;;24.10;13.77;;;-10.40;56.20;;;;;;5070700;28;20104;-57
2021/01/17 07:30:55;;;;;;;25.00;14.95;;;-10.30;56.30;;;;;;5075683;28;20016;-59
2021/01/17 07:33:31;;;;;;;27.63;14.43;;;-10.30;56.40;;;;;;5075754;28;20499;-58
2021/01/17 07:36:00;;;;;;;25.10;14.45;;;-10.30;56.30;;;;;;5075456;28;20051;-58
2021/01/17 07:38:29;;;;;;;22.67;13.55;;;-10.20;56.30;;;;;;5075780;28;20047;-58
2021/01/17 07:40:59;;;;;;;24.63;13.87;;;-10.20;56.30;;;;;;5063178;28;20044;-58
2021/01/17 07:43:41;;;;;;;23.33;14.52;;;-10.10;56.30;;;;;;5067807;28;20511;-56
2021/01/17 07:46:17;;;;;;;25.98;15.02;;;-10.10;56.30;;;;;;5073015;28;20476;-58
2021/01/17 07:48:46;;;;;;;26.33;16.00;;;-10.00;56.30;;;;;;5075484;28;20029;-60
2021/01/17 07:51:13;;;;;;;33.03;17.23;;;-10.00;56.50;;;;;;5075361;28;20460;-57
2021/01/17 07:53:39;;;;;;;35.50;20.10;;;-9.90;56.50;;;;;;5073261;28;20101;-58
2021/01/17 07:56:08;;;;;;;34.33;19.08;;;-9.90;56.30;;;;;;5062812;28;20063;-57
2021/01/17 07:58:47;;;;;;;36.47;20.05;;;-9.80;56.40;;;;;;5074014;28;20032;-58
2021/01/17 08:01:30;;;;;;;40.08;21.65;;;-9.80;56.40;;;;;;5075104;28;20423;-58
2021/01/17 08:04:05;;;;;;;38.28;20.75;;;-9.70;56.50;;;;;;5064505;28;20028;-58
2021/01/17 08:06:37;;;;;;;42.65;21.52;;;-9.70;56.30;;;;;;5075059;28;20028;-59
2021/01/17 08:09:40;;;;;;;43.35;22.50;;;-9.60;56.30;;;;;;5073279;28;20028;-59
2021/01/17 08:12:06;;;;;;;43.42;19.98;;;-9.50;56.20;;;;;;5060319;28;20041;-57
2021/01/17 08:14:33;;;;;;;43.20;21.20;;;-9.40;56.20;;;;;;5074934;28;20025;-59
2021/01/17 08:17:01;;;;;;;40.13;21.77;;;-9.40;56.20;;;;;;5074804;28;20052;-57
2021/01/17 08:19:42;;;;;;;39.90;21.23;;;-9.30;56.30;;;;;;5063963;28;20040;-57
2021/01/17 08:22:17;;;;;;;37.72;18.67;;;-9.30;56.20;;;;;;5072724;28;20029;-58
2021/01/17 08:24:46;;;;;;;39.20;19.98;;;-9.20;56.20;;;;;;5066956;28;20026;-57
2021/01/17 08:27:30;;;;;;;32.40;18.75;;;-9.10;56.20;;;;;;5074616;28;20090;-58
2021/01/17 08:30:07;;;;;;;38.60;21.33;;;-9.10;56.10;;;;;;5065299;28;20040;-55
2021/01/17 08:32:36;;;;;;;36.75;19.67;;;-9.00;56.10;;;;;;5073207;28;20031;-59
2021/01/17 08:35:20;;;;;;;37.83;19.80;;;-9.00;55.80;;;;;;5070134;28;20409;-58
2021/01/17 08:37:52;;;;;;;36.08;20.65;;;-8.90;55.80;;;;;;5072361;28;20030;-59
2021/01/17 08:40:18;;;;;;;36.13;19.25;;;-8.90;55.80;;;;;;5070525;28;20147;-58
2021/01/17 08:43:01;;;;;;;35.08;18.58;;;-8.90;55.80;;;;;;5068579;28;20024;-56
2021/01/17 08:45:26;;;;;;;37.70;19.75;;;-8.80;55.80;;;;;;5069234;28;20032;-58
2021/01/17 08:47:54;;;;;;;39.78;18.15;;;-8.80;55.70;;;;;;5074237;28;20020;-58
2021/01/17 08:50:33;;;;;;;33.65;18.90;;;-8.70;55.70;;;;;;5065216;28;20061;-60
2021/01/17 08:53:21;;;;;;;39.92;20.23;;;-8.70;55.70;;;;;;5074232;28;20009;-56
2021/01/17 08:55:54;;;;;;;32.47;18.45;;;-8.70;55.70;;;;;;5074264;28;20029;-59
2021/01/17 08:58:26;;;;;;;29.42;18.10;;;-8.60;55.80;;;;;;5074442;28;20020;-56
2021/01/17 09:00:52;;;;;;;39.20;22.75;;;-8.50;55.80;;;;;;5074072;28;20055;-58
2021/01/17 09:03:36;;;;;;;36.55;19.75;;;-8.50;55.80;;;;;;5073832;28;20063;-55
2021/01/17 09:06:12;;;;;;;34.38;18.58;;;-8.40;55.80;;;;;;5066434;28;20027;-58
2021/01/17 09:08:40;;;;;;;30.90;14.77;;;-8.40;55.60;;;;;;5074082;28;20376;-59
2021/01/17 09:11:31;;;;;;;28.30;15.55;;;-8.30;55.50;;;;;;5073979;28;20028;-57
2021/01/17 09:14:23;;;;;;;26.17;13.93;;;-8.20;55.40;;;;;;5067957;28;20476;-59
2021/01/17 09:16:50;;;;;;;23.40;13.40;;;-8.20;55.30;;;;;;5072660;28;20038;-57
2021/01/17 09:19:17;;;;;;;29.75;15.80;;;-8.20;55.20;;;;;;5067857;28;20614;-56
2021/01/17 09:21:44;;;;;;;29.02;13.75;;;-8.10;55.30;;;;;;5066198;28;20467;-57
2021/01/17 09:24:16;;;;;;;27.13;15.70;;;-8.10;55.60;;;;;;5059931;28;20078;-58
2021/01/17 09:26:48;;;;;;;21.70;13.27;;;-8.00;55.60;;;;;;5073980;28;20361;-59
2021/01/17 09:29:20;;;;;;;19.13;12.60;;;-7.90;55.40;;;;;;5064331;28;20036;-58
2021/01/17 09:32:14;;;;;;;22.52;13.52;;;-7.80;55.30;;;;;;5073441;28;20100;-57
2021/01/17 09:34:42;;;;;;;28.92;16.45;;;-7.80;54.90;;;;;;5073282;28;20126;-59
2021/01/17 09:37:11;;;;;;;51.53;30.35;;;-7.80;54.80;;;;;;5073440;28;20074;-58
2021/01/17 09:39:42;;;;;;;22.05;13.57;;;-7.70;54.90;;;;;;5073521;28;20021;-58
2021/01/17 09:42:10;;;;;;;19.27;10.77;;;-7.70;54.80;;;;;;5073442;28;20480;-60
2021/01/17 09:44:37;;;;;;;19.80;11.55;;;-7.70;54.80;;;;;;5073042;28;20107;-56
2021/01/17 09:47:12;;;;;;;21.88;11.00;;;-7.60;54.50;;;;;;5071143;28;20020;-59
2021/01/17 09:49:38;;;;;;;14.63;10.55;;;-7.60;54.50;;;;;;5073133;28;20020;-55
2021/01/17 09:52:04;;;;;;;17.45;11.75;;;-7.60;54.50;;;;;;5073001;28;20425;-57
2021/01/17 09:54:30;;;;;;;24.95;15.15;;;-7.60;54.70;;;;;;5073005;28;20048;-58
2021/01/17 09:56:56;;;;;;;25.65;16.38;;;-7.50;54.70;;;;;;5072256;28;20036;-58
2021/01/17 09:59:22;;;;;;;33.60;18.02;;;-7.50;54.70;;;;;;5073070;28;20430;-58
2021/01/17 10:01:49;;;;;;;44.25;22.10;;;-7.30;54.80;;;;;;5067335;28;20020;-59
2021/01/17 10:04:20;;;;;;;45.55;23.15;;;-7.30;54.60;;;;;;5072842;28;20051;-57
2021/01/17 10:06:49;;;;;;;43.88;21.90;;;-7.20;54.60;;;;;;5072724;28;20067;-59
2021/01/17 10:09:17;;;;;;;43.03;22.92;;;-7.20;54.50;;;;;;5072904;28;20097;-55
2021/01/17 10:11:43;;;;;;;54.67;28.13;;;-7.10;54.30;;;;;;5072835;28;20070;-57
2021/01/17 10:14:11;;;;;;;47.17;25.20;;;-7.10;54.10;;;;;;5072817;28;20430;-57
2021/01/17 10:16:36;;;;;;;42.53;23.17;;;-7.10;53.90;;;;;;5072774;28;20032;-57
2021/01/17 10:19:06;;;;;;;38.00;19.98;;;-7.10;53.90;;;;;;5066844;28;20033;-59
2021/01/17 10:21:37;;;;;;;50.15;23.08;;;-7.10;53.70;;;;;;5065175;28;20524;-59
2021/01/17 10:24:03;;;;;;;43.17;22.88;;;-7.10;53.50;;;;;;5055871;28;20070;-57
2021/01/17 10:26:29;;;;;;;48.97;26.88;;;-7.10;53.70;;;;;;5062306;28;20112;-58
2021/01/17 10:28:55;;;;;;;54.80;26.67;;;-7.10;53.80;;;;;;5072619;28;20020;-57
2021/01/17 10:31:23;;;;;;;44.80;24.63;;;-7.10;53.80;;;;;;5072910;28;20503;-58
2021/01/17 10:33:49;;;;;;;33.97;20.00;;;-7.10;53.70;;;;;;5072566;28;20025;-59
2021/01/17 10:36:17;;;;;;;48.70;24.08;;;-7.10;53.70;;;;;;5072312;28;20044;-58
2021/01/17 10:38:44;;;;;;;42.55;24.05;;;-7.00;53.70;;;;;;5072628;28;20111;-59
2021/01/17 10:41:23;;;;;;;31.35;17.63;;;-7.00;53.70;;;;;;5071890;28;20020;-60
2021/01/17 10:43:57;;;;;;;36.78;18.25;;;-7.00;53.70;;;;;;5072569;28;20025;-59
2021/01/17 10:46:25;;;;;;;31.75;18.52;;;-7.00;53.60;;;;;;5072397;28;20021;-58
2021/01/17 10:48:59;;;;;;;28.13;16.65;;;-7.00;53.60;;;;;;5070045;28;20035;-56
2021/01/17 10:51:47;;;;;;;28.05;15.48;;;-7.00;53.60;;;;;;5072504;28;20013;-59
2021/01/17 10:54:22;;;;;;;29.00;13.90;;;-7.00;53.70;;;;;;5069110;28;20028;-59
2021/01/17 10:56:49;;;;;;;19.27;12.45;;;-7.00;53.80;;;;;;5065068;28;20029;-60
2021/01/17 10:59:18;;;;;;;22.02;12.13;;;-7.00;53.80;;;;;;5066530;28;20035;-57
2021/01/17 11:01:47;;;;;;;19.42;11.00;;;-7.10;53.70;;;;;;5074523;28;20033;-59
2021/01/17 11:04:16;;;;;;;19.65;10.52;;;-7.10;54.30;;;;;;5072218;28;20025;-58
2021/01/17 11:06:46;;;;;;;15.15;9.57;;;-7.10;53.70;;;;;;5056930;28;20013;-58
2021/01/17 11:09:14;;;;;;;17.45;9.32;;;-7.20;53.70;;;;;;5071934;28;20051;-58
2021/01/17 11:11:48;;;;;;;14.05;9.25;;;-7.20;53.70;;;;;;5071586;28;20287;-57
2021/01/17 11:14:14;;;;;;;14.07;8.85;;;-7.20;53.80;;;;;;5065717;28;20494;-58
2021/01/17 11:16:49;;;;;;;14.60;9.13;;;-7.30;53.70;;;;;;5071291;28;20020;-57
2021/01/17 11:19:15;;;;;;;14.10;7.82;;;-7.30;53.70;;;;;;5067930;28;20025;-58
2021/01/17 11:21:45;;;;;;;18.20;8.95;;;-7.30;53.80;;;;;;5073603;28;20063;-59
2021/01/17 11:24:12;;;;;;;17.50;8.93;;;-7.30;53.90;;;;;;5060484;28;20025;-58
2021/01/17 11:26:39;;;;;;;13.77;8.90;;;-7.30;53.90;;;;;;5071265;28;20372;-59
2021/01/17 11:29:07;;;;;;;13.88;8.70;;;-7.30;53.90;;;;;;5073010;28;20032;-58
2021/01/17 11:31:34;;;;;;;13.93;9.02;;;-7.30;53.90;;;;;;5071801;28;20012;-56
2021/01/17 11:34:12;;;;;;;12.73;9.18;;;-7.30;53.70;;;;;;5073533;28;20021;-58
2021/01/17 11:36:39;;;;;;;14.75;8.27;;;-7.40;53.70;;;;;;5072099;28;20060;-58
2021/01/17 11:39:04;;;;;;;17.23;9.38;;;-7.40;53.80;;;;;;5074174;28;20055;-58
2021/01/17 11:41:37;;;;;;;14.40;9.55;;;-7.40;53.80;;;;;;5072703;28;20025;-56
2021/01/17 11:44:12;;;;;;;13.27;8.35;;;-7.40;53.70;;;;;;5071070;28;20033;-58
2021/01/17 11:46:39;;;;;;;15.55;9.73;;;-7.40;53.70;;;;;;5070527;28;20032;-57
2021/01/17 11:49:06;;;;;;;13.13;8.25;;;-7.40;53.80;;;;;;5073206;28;20499;-56
2021/01/17 11:51:32;;;;;;;15.50;8.90;;;-7.40;53.80;;;;;;5072463;28;20468;-56
2021/01/17 11:54:31;;;;;;;18.58;9.23;;;-7.40;53.80;;;;;;5069851;28;20113;-56
2021/01/17 11:57:12;;;;;;;15.65;9.52;;;-7.30;54.30;;;;;;5062951;28;20047;-58
2021/01/17 11:59:39;;;;;;;16.00;9.35;;;-7.30;53.80;;;;;;5065314;28;20029;-57
2021/01/17 12:02:21;;;;;;;13.23;8.35;;;-7.30;53.70;;;;;;5068327;28;20031;-58
2021/01/17 12:04:57;;;;;;;17.42;10.05;;;-7.30;53.70;;;;;;5069566;28;20032;-58
2021/01/17 12:07:22;;;;;;;13.15;8.68;;;-7.30;53.70;;;;;;5071371;28;20488;-59
2021/01/17 12:09:48;;;;;;;14.80;9.10;;;-7.40;53.70;;;;;;5069587;28;20103;-57
2021/01/17 12:12:18;;;;;;;13.45;9.35;;;-7.40;53.70;;;;;;5070590;28;20040;-58
2021/01/17 12:14:44;;;;;;;13.50;8.45;;;-7.40;53.80;;;;;;5071561;28;20028;-59
2021/01/17 12:17:11;;;;;;;14.23;9.50;;;-7.40;53.70;;;;;;5068287;28;20040;-58
2021/01/17 12:19:38;;;;;;;16.65;9.90;;;-7.40;53.70;;;;;;5070466;28;20079;-55
2021/01/17 12:22:05;;;;;;;14.77;9.55;;;-7.40;53.60;;;;;;5071611;28;20184;-59
2021/01/17 12:24:34;;;;;;;13.60;8.40;;;-7.40;53.70;;;;;;5070032;28;20027;-59
2021/01/17 12:27:00;;;;;;;13.93;8.98;;;-7.50;53.70;;;;;;5071085;28;20036;-57
2021/01/17 12:29:26;;;;;;;17.02;10.45;;;-7.50;54.30;;;;;;5072956;28;20460;-57
2021/01/17 12:31:52;;;;;;;15.93;9.98;;;-7.50;53.70;;;;;;5071099;28;20027;-58
2021/01/17 12:34:18;;;;;;;13.35;8.95;;;-7.60;53.60;;;;;;5072094;28;20024;-58
2021/01/17 12:36:45;;;;;;;16.92;9.68;;;-7.60;53.60;;;;;;5073483;28;20039;-59
2021/01/17 12:39:13;;;;;;;21.05;8.95;;;-7.70;53.60;;;;;;5073036;28;20031;-59